РПИ Минск

Обслуживание воздушного движения в воздушном пространстве Республики Беларусь осуществляется Минским районным и аэродромным диспетчерским центром, а также службами воздушного движения в аэропортах при тесном взаимодействии со смежными диспетчерскими центрами и другими органами, участвующими в обеспечении полетов. Благодаря согласованным действиям полеты воздушных судов осуществляются по кратчайшим расстояниям, на экономичных высотах и режимах полета. Управление воздушным движением осуществляется на площади 207,6 кв. км, а протяженность воздушных трасс составляет 25 000 км.

В воздушном пространстве Республики Беларусь в узловых диспетчерских районах установлена единая для гражданских аэропортов высота перехода (transition altitude) - 6000 ft (1850 м), определяемая по давлению аэродрома, приведенному к среднему уровню моря по стандартной атмосфере.

Эшелон перехода (Transition Level) устанавливается:

TL80 (2450 м) - при минимальном давлении на территории Республики Беларусь, приведенном к среднему уровню моря по стандартной атмосфере, до 977,2 гПа;

TL90 (2750 м) - при минимальном давлении на территории Республики Беларусь, приведенном к среднему уровню моря по стандартной атмосфере 977,1 гПа и ниже.

Средства связи ОВД:

UMMV_CTR - Minsk-Control - Минск-Контроль - 129.000

Диапазон кодов ответчика: район применения ICAO EUR-E

2001-2077, 5101-5137 (транзит), 6230-6277  (транзит)

Лого Минск
Руководство

Roman Savel

Начальник ЗЦ Беларусь

Maxim Gerasimov

Инструктор
Контакты

Инструкторы РПИ
Andrei Valasevich * (Controller)
Denis Kashin (Instructor)
Maxim Gerasimov (Instructor)
Roman Savel (Instructor)
Входит в состав
Западная Россия

Диспетчеры РПИ

Диспетчер Рейтинг Допуски *
Artem Mordvinov Controller UMMV_CTR
Andrei Valasevich Controller UMMV_CTR
Denis Kashin Instructor UMMV_CTR
Maxim Gerasimov Instructor UMMV_CTR
Roman Savel Instructor UMMV_CTR
Akmal Choriev Student UMMS_GND
Aleksey Zgoda Student UMMS_GND
alex kozyro Student 2 UMMS_2_TWR*, UMMS_1_TWR*
Alexander Belyakov Unknown UMMS_APP
Alexander Nazarenko Student UMMS_GND
Alexey Verbitsky Student UMMS_GND
Anna Piliushko Student 2 UMMS_APP*
Arseny Krutikov Student 2 UMMS_R_APP*
Artyom Somok Student UMMS_GND
Danila Yarov Senior Student UMMS_APP
Dmitriy Kuzmin Senior Student UMMS_APP
Ignat Morozov Student 2 UMMS_GND
Iosif Karpov Student 2 UMMS_R_APP*
Ivan Davidovich Student UMMS_GND
Maksim Tsyro Student UMMS_GND
Maxim Ivantsov Student 2 UMMS_R_APP*
Michael Kostelcev Student 2 UMMS_APP*
Pavel Kostuykov Student 2 UMMS_2_TWR, UMMS_1_TWR
Pavel Yashin Student 2 UMMS_APP*
Vsevolod Shyshko Student UMMS_1_TWR*, UMMS_2_TWR*

Аэропорты РПИ

ICAO Город Название Погода
UMMS Минск Минск UMMS 100830Z 04004MPS 2400 -SN BKN006 OVC021 M02/M03 Q1007 NOSIG RMK QBB180
UMBB Брест Брест UMBB 100800Z 03005G08MPS 3300 -SHSN BR OVC007CB M01/M01 Q1004 NOSIG
UMII Витебск Восточный UMII 100800Z 05002MPS 9000 SCT006 OVC016 M04/M04 Q1010 TEMPO 2000 BR BKN005 RMK QBB200
UMGG Гомель Гомель UMGG 100830Z 08007MPS 3800 -SHSNRA BR OVC004CB 00/M00 Q1006 NOSIG RMK QBB120
UMMG Гродно Гродно UMMG 100800Z 05005G08MPS 5000 -SN BR OVC005 M02/M03 Q1008 NOSIG RMK QBB160
UMOO Могилёв Могилёв UMOO 100800Z 06004MPS 0600 R31/0600 +SN VV001 M02/M03 Q1009 NOSIG RMK QBB050